• Join FlightAware (Why Join?)
  • Login
  • US Flag 
07:46AM EDT


 

Airport Tracker/Info


-or-


 

Live Flight TrackerFlight Track Log ✈ UCA3597 ✈ 11-Dec-2013 ✈ KIAD - KBGM

Flight Track Log - Related Links

Times and Time Zones

All times are in EST time to prevent confusion due to time zone crossing. See the UCA3597 flight status page for this flight to view local times or setup timezone preferences in your user account.

Time Position Orientation Groundspeed Altitude Reporting Facility
EST Latitude Longitude Course Direction KTS MPH feet Rate Location/Type
05:54PM 39.4568 -77.2385 19° North  Level Estimated
05:55PM 39.5296 -77.2066 19° North  Level Estimated
05:56PM 39.6023 -77.1747 19° North  Level Estimated
05:57PM 39.6750 -77.1426 19° North  Level Estimated
05:58PM 39.7477 -77.1105 19° North  Level Estimated
05:59PM 39.8204 -77.0784 19° North  Level Estimated
06:00PM 39.8931 -77.0462 19° North  Level Estimated
06:01PM 39.9658 -77.0139 19° North  Level Estimated
06:02PM 40.0385 -76.9815 19° North  Level Estimated
06:03PM 40.1111 -76.9491 19° North  Level Estimated
06:04PM 40.1838 -76.9165 19° North  Level Estimated
06:05PM 40.2564 -76.8840 19° North  Level Estimated
06:06PM 40.3291 -76.8513 19° North  Level Estimated
06:07PM 40.4017 -76.8186 19° North  Level Estimated
06:08PM 40.4743 -76.7858 19° North  Level Estimated
06:09PM 40.5469 -76.7529 19° North  Level Estimated
06:10PM 40.6195 -76.7200 19° North  Level Estimated
06:11PM 40.6921 -76.6870 19° North  Level Estimated
06:12PM 40.7647 -76.6539 19° North  Level Estimated
06:13PM 40.8373 -76.6208 19° North  Level Estimated
06:14PM 40.9098 -76.5876 19° North  Level Estimated
06:15PM 40.9824 -76.5543 19° North  Level Estimated
06:16PM 41.0549 -76.5209 19° North  Level Estimated
06:17PM 41.1274 -76.4875 19° North  Level Estimated
06:18PM 41.2000 -76.4540 19° North  Level Estimated
06:19PM 41.2725 -76.4204 19° North  Level Estimated
06:20PM 41.3450 -76.3867 19° North  Level Estimated
06:21PM 41.4175 -76.3530 19° North  Level Estimated
06:22PM 41.4899 -76.3192 19° North  Level Estimated
06:23PM 41.5624 -76.2853 19° North  Level Estimated
06:24PM 41.6349 -76.2513 19° North  Level Estimated
06:25PM 41.7073 -76.2173 19° North  Level Estimated
06:26PM 41.7798 -76.1832 19° North  Level Estimated
06:27PM 41.8522 -76.1490 19° North  Level Estimated
06:28PM 41.9246 -76.1147 19° North  Level Estimated
06:29PM 41.9970 -76.0804 19° North  Level Estimated
06:30PM 42.0694 -76.0459 19° North  Level Estimated
06:31PM 42.1418 -76.0114 19° North  Level Estimated
06:32PM 42.2084 -75.9796 19° North  Level Estimated
06:33PM 42.2084 -75.9796 35° Northeast  Level Estimated
06:34PM 42.2084 -75.9796 35° Northeast  Level Estimated
06:35PM 42.2084 -75.9796 35° Northeast  Level Estimated
06:36PM 42.2084 -75.9796 35° Northeast  Level Estimated
06:37PM 42.2084 -75.9796 35° Northeast  Level Estimated
06:38PM 42.2084 -75.9796 35° Northeast  Level Estimated
06:39PM 42.2084 -75.9796 35° Northeast  Level Estimated
06:40PM 42.2084 -75.9796 35° Northeast  Level Estimated
06:41PM 42.2084 -75.9796 35° Northeast  Level Estimated
06:42PM 42.2084 -75.9796 35° Northeast  Level Estimated
06:43PM 42.2084 -75.9796 35° Northeast  Level Estimated
06:44PM 42.2084 -75.9796 35° Northeast  Level Estimated
06:45PM 42.2084 -75.9796 35° Northeast  Level Estimated
06:46PM 42.2084 -75.9796 35° Northeast  Level Estimated
06:47PM 42.2084 -75.9796 35° Northeast  Level Estimated
06:48PM 42.2084 -75.9796 35° Northeast  Level Estimated